Time;durP1;ratioP1;P1;durP2;ratioP2;P2;SDS_P1;SDS_P2;PMS_P1;PMS_P2;Temp;Humidity;BMP_temperature;BMP_pressure;BME280_temperature;BME280_humidity;BME280_pressure;Samples;Min_cycle;Max_cycle;Signal;HPM_P1;HPM_P2
2022/12/18 00:00:22;;;;;;;0.20;0.20;;;;;;;-7.89;100.00;97588.44;4941568;28;20066;-72
2022/12/18 00:03:08;;;;;;;0.10;0.10;;;;;;;-7.84;100.00;97579.50;4942627;28;20132;-72
2022/12/18 00:05:54;;;;;;;0.20;0.20;;;;;;;-7.79;100.00;97591.22;4941018;28;20034;-72
2022/12/18 00:08:41;;;;;;;0.20;0.20;;;;;;;-7.83;100.00;97594.97;4953813;28;20066;-70
2022/12/18 00:11:30;;;;;;;0.10;0.10;;;;;;;-7.84;100.00;97598.53;4943463;28;20922;-70
2022/12/18 00:14:16;;;;;;;0.20;0.20;;;;;;;-7.81;100.00;97600.06;4941451;28;20043;-71
2022/12/18 00:17:02;;;;;;;0.10;0.10;;;;;;;-7.75;100.00;97599.63;4946724;28;20746;-72
2022/12/18 00:19:48;;;;;;;0.10;0.10;;;;;;;-7.74;100.00;97596.94;4941675;28;20043;-72
2022/12/18 00:22:34;;;;;;;0.10;0.10;;;;;;;-7.76;100.00;97606.59;4942727;28;20046;-72
2022/12/18 00:25:20;;;;;;;0.10;0.10;;;;;;;-7.81;100.00;97603.50;4940191;28;20138;-73
2022/12/18 00:28:06;;;;;;;0.20;0.20;;;;;;;-7.84;100.00;97598.53;4945087;28;20041;-74
2022/12/18 00:31:00;;;;;;;0.20;0.20;;;;;;;-7.86;100.00;97592.56;4948736;28;20065;-70
2022/12/18 00:33:47;;;;;;;0.20;0.20;;;;;;;-7.88;100.00;97587.50;4961730;28;20050;-73
2022/12/18 00:36:34;;;;;;;0.10;0.10;;;;;;;-7.97;100.00;97592.50;4973637;28;20257;-73
2022/12/18 00:39:20;;;;;;;0.20;0.20;;;;;;;-7.95;100.00;97590.63;4961431;28;20078;-73
2022/12/18 00:45:10;;;;;;;0.10;0.10;;;;;;;-8.06;100.00;97583.56;4962598;28;20097;-73
2022/12/18 00:47:57;;;;;;;0.10;0.10;;;;;;;-8.01;100.00;97576.31;4963340;28;20234;-72
2022/12/18 00:50:43;;;;;;;0.20;0.20;;;;;;;-7.88;100.00;97582.28;4962553;28;20047;-73
2022/12/18 00:53:28;;;;;;;0.20;0.20;;;;;;;-8.01;100.00;97565.09;4963892;28;20483;-72
2022/12/18 00:56:16;;;;;;;0.10;0.10;;;;;;;-7.79;100.00;97605.97;4963673;28;20371;-74
2022/12/18 00:59:02;;;;;;;0.20;0.20;;;;;;;-7.74;100.00;97598.69;4962856;28;20046;-73
2022/12/18 01:01:47;;;;;;;0.20;0.20;;;;;;;-7.63;100.00;97599.59;4963860;28;20732;-70
2022/12/18 01:04:34;;;;;;;0.20;0.20;;;;;;;-7.55;100.00;97600.81;4960565;28;20046;-73
2022/12/18 01:07:20;;;;;;;0.20;0.20;;;;;;;-7.55;100.00;97600.81;4962540;28;20169;-73
2022/12/18 01:10:07;;;;;;;0.20;0.20;;;;;;;-7.56;100.00;97607.78;4975001;28;20220;-71
2022/12/18 01:12:55;;;;;;;0.20;0.20;;;;;;;-7.65;100.00;97604.06;4962466;28;20046;-72
2022/12/18 01:15:48;;;;;;;0.10;0.10;;;;;;;-7.58;100.00;97613.09;4962011;28;20050;-71
2022/12/18 01:18:35;;;;;;;0.20;0.20;;;;;;;-7.66;100.00;97597.22;4959821;28;20074;-73
2022/12/18 01:21:22;;;;;;;0.20;0.20;;;;;;;-7.60;100.00;97606.38;4975905;28;20046;-73
2022/12/18 01:24:11;;;;;;;0.20;0.20;;;;;;;-7.66;100.00;97605.03;4975183;28;20051;-74
2022/12/18 01:26:57;;;;;;;0.20;0.20;;;;;;;-7.71;100.00;97599.31;4967233;28;20524;-71
2022/12/18 01:29:43;;;;;;;0.20;0.20;;;;;;;-7.86;100.00;97571.78;4964769;28;20046;-72
2022/12/18 01:32:30;;;;;;;0.20;0.20;;;;;;;-7.75;100.00;97595.28;4945773;28;20086;-73
2022/12/18 01:35:16;;;;;;;0.20;0.20;;;;;;;-7.82;100.00;97604.44;4947179;28;20049;-72
2022/12/18 01:38:02;;;;;;;0.10;0.10;;;;;;;-7.85;100.00;97609.84;4949736;28;20531;-72
2022/12/18 01:40:48;;;;;;;0.20;0.20;;;;;;;-7.91;100.00;97605.91;4957938;28;20054;-72
2022/12/18 01:44:00;;;;;;;0.20;0.20;;;;;;;-7.92;100.00;97599.06;4944957;28;20071;-73
2022/12/18 01:46:46;;;;;;;0.20;0.20;;;;;;;-7.94;100.00;97587.06;4945620;28;20038;-70
2022/12/18 01:49:32;;;;;;;0.20;0.20;;;;;;;-7.94;100.00;97598.31;4944915;28;20047;-72
2022/12/18 01:52:20;;;;;;;0.20;0.20;;;;;;;-8.00;100.00;97596.16;4946249;28;20573;-70
2022/12/18 01:55:07;;;;;;;0.20;0.20;;;;;;;-8.04;100.00;97596.44;4946414;28;20487;-69
2022/12/18 01:57:56;;;;;;;0.10;0.10;;;;;;;-8.00;100.00;97590.13;4945654;28;20077;-72
2022/12/18 02:00:42;;;;;;;0.20;0.20;;;;;;;-8.04;100.00;97596.44;4951170;28;20502;-70
2022/12/18 02:03:28;;;;;;;0.20;0.20;;;;;;;-8.07;100.00;97599.28;4963902;28;20042;-72
2022/12/18 02:06:33;;;;;;;0.20;0.20;;;;;;;-8.09;100.00;97594.19;4964350;28;20057;-73
2022/12/18 02:09:32;;;;;;;0.20;0.20;;;;;;;-8.10;100.00;97592.50;4977389;28;20054;-72
2022/12/18 02:12:22;;;;;;;0.20;0.20;;;;;;;-8.13;100.00;97588.34;4967059;28;20079;-72
2022/12/18 02:15:43;;;;;;;0.20;0.20;;;;;;;-8.20;100.00;97587.13;4964022;28;20078;-72
2022/12/18 02:18:41;;;;;;;0.10;0.10;;;;;;;-8.17;100.00;97602.50;4954681;28;20062;-72
2022/12/18 02:21:29;;;;;;;0.20;0.20;;;;;;;-8.18;100.00;97605.19;4964801;28;20042;-71
2022/12/18 02:24:50;;;;;;;0.20;0.20;;;;;;;-8.21;100.00;97601.03;4964977;28;20042;-71
2022/12/18 02:27:39;;;;;;;0.20;0.20;;;;;;;-8.22;100.00;97591.59;4959733;28;20710;-72
2022/12/18 02:30:30;;;;;;;0.10;0.10;;;;;;;-8.23;100.00;97589.94;4962673;28;20497;-71
2022/12/18 02:33:19;;;;;;;0.20;0.20;;;;;;;-8.25;100.00;97590.94;4945476;28;20085;-71
2022/12/18 02:36:06;;;;;;;0.20;0.20;;;;;;;-8.24;100.00;97598.66;4944509;28;20043;-71
2022/12/18 02:38:55;;;;;;;0.10;0.10;;;;;;;-8.20;100.00;97591.47;4956304;28;20043;-72
2022/12/18 02:41:41;;;;;;;0.20;0.20;;;;;;;-8.20;100.00;97591.47;4943237;28;20050;-69
2022/12/18 02:44:27;;;;;;;0.17;0.17;;;;;;;-8.23;100.00;97592.53;4956168;28;20348;-72
2022/12/18 02:47:16;;;;;;;0.20;0.20;;;;;;;-8.18;100.00;97598.22;4944289;28;20553;-71
2022/12/18 02:50:20;;;;;;;0.10;0.10;;;;;;;-8.14;100.00;97588.47;4942879;28;20761;-72
2022/12/18 02:53:14;;;;;;;0.20;0.20;;;;;;;-8.17;100.00;97586.06;4944375;28;20320;-72
2022/12/18 02:56:13;;;;;;;0.20;0.20;;;;;;;-8.08;100.00;97595.03;4958904;28;20042;-72
2022/12/18 02:59:19;;;;;;;0.20;0.20;;;;;;;-8.09;100.00;97582.94;4956241;28;20070;-70
2022/12/18 03:02:22;;;;;;;0.20;0.20;;;;;;;-8.11;100.00;97590.00;4945595;28;20047;-72
2022/12/18 03:05:12;;;;;;;0.20;0.20;;;;;;;-8.09;100.00;97583.78;4945483;28;20081;-72
2022/12/18 03:08:05;;;;;;;0.20;0.20;;;;;;;-8.13;100.00;97588.34;4955659;28;20796;-70
2022/12/18 03:11:05;;;;;;;0.10;0.10;;;;;;;-8.13;100.00;97584.94;4941358;28;20039;-72
2022/12/18 03:13:57;;;;;;;0.20;0.20;;;;;;;-8.13;100.00;97590.13;4943021;28;20039;-71
2022/12/18 03:16:44;;;;;;;0.10;0.10;;;;;;;-8.13;100.00;97582.34;4955270;28;20071;-72
2022/12/18 03:19:32;;;;;;;0.17;0.17;;;;;;;-8.15;100.00;97582.44;4941360;28;20054;-73
2022/12/18 03:22:22;;;;;;;0.10;0.10;;;;;;;-8.15;100.00;97577.25;4946004;28;20046;-71
2022/12/18 03:25:13;;;;;;;0.20;0.20;;;;;;;-8.15;100.00;97566.03;4941898;28;20043;-71
2022/12/18 03:28:05;;;;;;;0.20;0.20;;;;;;;-8.13;100.00;97571.94;4956977;28;20387;-71
2022/12/18 03:30:58;;;;;;;0.10;0.10;;;;;;;-8.16;100.00;97573.00;4955095;28;20054;-72
2022/12/18 03:33:53;;;;;;;0.10;0.10;;;;;;;-8.17;100.00;97565.28;4941022;28;20047;-72
2022/12/18 03:36:41;;;;;;;0.20;0.20;;;;;;;-8.18;100.00;97574.84;4941414;28;20050;-72
2022/12/18 03:39:27;;;;;;;0.20;0.20;;;;;;;-8.10;100.00;97579.50;4941210;28;20474;-69
2022/12/18 03:42:19;;;;;;;0.20;0.20;;;;;;;-8.07;100.00;97575.91;4949337;28;20236;-71
2022/12/18 03:45:33;;;;;;;0.20;0.20;;;;;;;-8.06;100.00;97572.34;4939640;28;20043;-70
2022/12/18 03:48:35;;;;;;;0.10;0.10;;;;;;;-8.01;100.00;97571.09;4943838;28;20042;-72
2022/12/18 03:51:30;;;;;;;0.20;0.20;;;;;;;-8.01;100.00;97552.09;4956212;28;20359;-69
2022/12/18 03:54:18;;;;;;;0.20;0.20;;;;;;;-7.93;100.00;97557.59;4940640;28;20050;-73
2022/12/18 03:57:19;;;;;;;0.20;0.20;;;;;;;-7.91;100.00;97566.09;4942004;28;20043;-69
2022/12/18 04:00:14;;;;;;;0.20;0.20;;;;;;;-7.91;100.00;97561.72;4944799;28;20197;-71
2022/12/18 04:03:01;;;;;;;0.13;0.13;;;;;;;-7.94;100.00;97548.94;4962915;28;20042;-69
2022/12/18 04:05:57;;;;;;;0.20;0.20;;;;;;;-7.94;100.00;97545.50;4947403;28;20294;-74
2022/12/18 04:08:44;;;;;;;0.20;0.20;;;;;;;-7.97;100.00;97540.53;4947052;28;20057;-70
2022/12/18 04:11:35;;;;;;;0.20;0.20;;;;;;;-7.95;100.00;97538.66;4974397;28;20235;-72
2022/12/18 04:14:23;;;;;;;0.20;0.20;;;;;;;-7.96;100.00;97527.44;4961138;28;20569;-72
2022/12/18 04:17:13;;;;;;;0.20;0.20;;;;;;;-7.93;100.00;97534.19;4966019;28;20046;-71
2022/12/18 04:19:59;;;;;;;0.20;0.20;;;;;;;-7.96;100.00;97534.41;4975711;28;20049;-70
2022/12/18 04:22:45;;;;;;;0.10;0.10;;;;;;;-7.94;100.00;97545.50;4958330;28;20096;-72
2022/12/18 04:25:31;;;;;;;0.10;0.10;;;;;;;-7.99;100.00;97537.22;4960092;28;20039;-72
2022/12/18 04:28:25;;;;;;;0.30;0.30;;;;;;;-8.01;100.00;97536.50;4963157;28;20046;-70
2022/12/18 04:31:12;;;;;;;0.10;0.10;;;;;;;-8.01;100.00;97542.53;4956451;28;20050;-68
2022/12/18 04:33:58;;;;;;;0.20;0.20;;;;;;;-8.02;100.00;97542.59;4942446;28;20547;-72
2022/12/18 04:36:44;;;;;;;0.10;0.10;;;;;;;-8.06;100.00;97544.59;4942957;28;20046;-70
2022/12/18 04:39:30;;;;;;;0.20;0.20;;;;;;;-8.06;100.00;97539.41;4943116;28;20186;-72
2022/12/18 04:42:22;;;;;;;0.20;0.20;;;;;;;-7.97;100.00;97543.97;4942250;28;20074;-71
2022/12/18 04:45:08;;;;;;;0.20;0.20;;;;;;;-7.93;100.00;97548.03;4942858;28;20070;-72
2022/12/18 04:47:56;;;;;;;0.10;0.10;;;;;;;-7.96;100.00;97544.78;4939661;28;21206;-70
2022/12/18 04:50:42;;;;;;;0.20;0.20;;;;;;;-7.95;100.00;97549.03;4941243;28;20670;-71
2022/12/18 04:53:28;;;;;;;0.20;0.20;;;;;;;-7.90;100.00;97555.59;4943117;28;20039;-72
2022/12/18 04:56:15;;;;;;;0.10;0.10;;;;;;;-7.88;100.00;97556.31;4943207;28;20046;-69
2022/12/18 04:59:01;;;;;;;0.10;0.10;;;;;;;-7.90;100.00;97553.00;4954910;28;20466;-71
2022/12/18 05:01:47;;;;;;;0.20;0.20;;;;;;;-7.87;100.00;97542.38;4957664;28;20078;-70
2022/12/18 05:04:32;;;;;;;0.10;0.10;;;;;;;-7.93;100.00;97536.78;4965009;28;20038;-72
2022/12/18 05:07:18;;;;;;;0.20;0.20;;;;;;;-7.90;100.00;97549.56;4965819;28;20053;-71
2022/12/18 05:10:08;;;;;;;0.20;0.20;;;;;;;-7.86;100.00;97543.19;4967420;28;20550;-72
2022/12/18 05:13:00;;;;;;;0.20;0.20;;;;;;;-7.93;100.00;97537.63;4966234;28;20471;-70
2022/12/18 05:15:52;;;;;;;0.20;0.20;;;;;;;-7.82;100.00;97552.44;4962688;28;20339;-71
2022/12/18 05:18:40;;;;;;;0.10;0.10;;;;;;;-7.74;100.00;97551.91;4964048;28;20042;-72
2022/12/18 05:21:26;;;;;;;0.22;0.22;;;;;;;-7.74;100.00;97549.31;4966393;28;20221;-71
2022/12/18 05:24:12;;;;;;;0.20;0.20;;;;;;;-7.71;100.00;97549.09;4966273;28;20183;-70
2022/12/18 05:26:58;;;;;;;0.20;0.20;;;;;;;-7.71;100.00;97555.13;4964463;28;21031;-71
2022/12/18 05:29:44;;;;;;;0.10;0.10;;;;;;;-7.73;100.00;97549.19;4965899;28;20038;-72
2022/12/18 05:32:29;;;;;;;0.20;0.20;;;;;;;-7.74;100.00;97547.53;4948423;28;20158;-71
2022/12/18 05:35:16;;;;;;;0.10;0.10;;;;;;;-7.70;100.00;97546.41;4947138;28;20054;-72
2022/12/18 05:38:02;;;;;;;0.20;0.20;;;;;;;-7.68;100.00;97547.13;4946201;28;20039;-72
2022/12/18 05:40:48;;;;;;;0.20;0.20;;;;;;;-7.70;100.00;97548.19;4944404;28;20595;-71
2022/12/18 05:43:39;;;;;;;0.20;0.20;;;;;;;-7.75;100.00;97539.88;4946578;28;20686;-72
2022/12/18 05:46:26;;;;;;;0.20;0.20;;;;;;;-7.73;100.00;97541.41;4959440;28;20546;-70
2022/12/18 05:49:12;;;;;;;0.20;0.20;;;;;;;-7.72;100.00;97550.84;4946825;28;20522;-69
2022/12/18 05:51:58;;;;;;;0.20;0.20;;;;;;;-7.70;100.00;97540.38;4946883;28;20751;-70
2022/12/18 05:54:44;;;;;;;0.20;0.20;;;;;;;-7.69;100.00;97540.25;4942300;28;20396;-71
2022/12/18 05:57:30;;;;;;;0.20;0.20;;;;;;;-7.67;100.00;97542.75;4946420;28;20047;-72
2022/12/18 06:00:16;;;;;;;0.15;0.15;;;;;;;-7.68;100.00;97530.69;4946655;28;20043;-72
2022/12/18 06:03:02;;;;;;;0.10;0.10;;;;;;;-7.69;100.00;97537.66;4945842;28;20055;-71
2022/12/18 06:05:48;;;;;;;0.20;0.20;;;;;;;-7.80;100.00;97516.78;4943501;28;20492;-72
2022/12/18 06:08:34;;;;;;;0.20;0.20;;;;;;;-7.62;100.00;97535.47;4946352;28;20163;-72
2022/12/18 06:11:22;;;;;;;0.10;0.10;;;;;;;-7.57;100.00;97528.97;4947439;28;20075;-72
2022/12/18 06:14:09;;;;;;;0.20;0.20;;;;;;;-7.53;100.00;97531.38;4945473;28;20168;-72
2022/12/18 06:16:55;;;;;;;0.20;0.20;;;;;;;-7.51;100.00;97552.88;4943145;28;20051;-70
2022/12/18 06:19:41;;;;;;;0.20;0.20;;;;;;;-7.55;100.00;97552.25;4942603;28;20043;-70
2022/12/18 06:22:27;;;;;;;0.20;0.20;;;;;;;-7.50;100.00;97554.53;4946031;28;20515;-70
2022/12/18 06:25:13;;;;;;;0.20;0.20;;;;;;;-7.50;100.00;97546.72;4945978;28;20418;-70
2022/12/18 06:27:59;;;;;;;0.20;0.20;;;;;;;-7.49;100.00;97566.59;4942449;28;20534;-72
2022/12/18 06:30:46;;;;;;;0.20;0.20;;;;;;;-7.55;100.00;97547.06;4943190;28;20501;-72
2022/12/18 06:33:33;;;;;;;0.20;0.20;;;;;;;-7.55;100.00;97559.22;4946182;28;20538;-73
2022/12/18 06:36:20;;;;;;;0.20;0.20;;;;;;;-7.50;100.00;97560.56;4944940;28;20423;-69
2022/12/18 06:39:06;;;;;;;0.20;0.20;;;;;;;-7.50;100.00;97570.97;4946216;28;20547;-70
2022/12/18 06:41:52;;;;;;;0.17;0.17;;;;;;;-7.45;100.00;97570.66;4943783;28;20070;-71
2022/12/18 06:44:38;;;;;;;0.20;0.20;;;;;;;-7.44;100.00;97575.75;4940436;28;20407;-73
2022/12/18 06:47:24;;;;;;;0.20;0.20;;;;;;;-7.47;100.00;97578.56;4946542;28;20403;-69
2022/12/18 06:50:10;;;;;;;0.20;0.20;;;;;;;-7.39;100.00;97578.84;4944186;28;20043;-71
2022/12/18 06:52:56;;;;;;;0.20;0.20;;;;;;;-7.37;100.00;97576.97;4943979;28;20702;-73
2022/12/18 06:55:42;;;;;;;0.20;0.20;;;;;;;-7.33;100.00;97590.56;4943075;28;20367;-72
2022/12/18 06:58:28;;;;;;;0.20;0.20;;;;;;;-7.39;100.00;97571.03;4946651;28;20395;-70
2022/12/18 07:01:17;;;;;;;0.20;0.20;;;;;;;-7.30;100.00;97574.75;4955017;28;20606;-71
2022/12/18 07:04:03;;;;;;;0.20;0.20;;;;;;;-7.30;100.00;97566.94;4962669;28;20041;-72
2022/12/18 07:06:49;;;;;;;0.20;0.20;;;;;;;-7.34;100.00;97560.28;4964858;28;20069;-72
2022/12/18 07:09:35;;;;;;;0.10;0.10;;;;;;;-7.27;100.00;97558.91;4974998;28;20116;-73
2022/12/18 07:12:20;;;;;;;0.20;0.20;;;;;;;-7.24;100.00;97553.47;4964273;28;20058;-73
2022/12/18 07:15:07;;;;;;;0.20;0.20;;;;;;;-7.22;100.00;97540.38;4965679;28;20042;-73
2022/12/18 07:17:53;;;;;;;0.10;0.10;;;;;;;-7.19;100.00;97553.16;4975801;28;20129;-72
2022/12/18 07:20:39;;;;;;;0.10;0.10;;;;;;;-7.20;100.00;97546.28;4964242;28;20046;-74
2022/12/18 07:23:27;;;;;;;0.20;0.20;;;;;;;-7.20;100.00;97547.13;4964651;28;20442;-73
2022/12/18 07:26:15;;;;;;;0.13;0.13;;;;;;;-7.16;100.00;97560.72;4968367;28;20049;-71
2022/12/18 07:29:01;;;;;;;0.20;0.20;;;;;;;-7.13;100.00;97553.53;4965270;28;21213;-74
2022/12/18 07:31:47;;;;;;;0.20;0.20;;;;;;;-7.13;100.00;97544.91;4951944;28;20047;-71
2022/12/18 07:34:33;;;;;;;0.20;0.20;;;;;;;-7.17;100.00;97551.25;4946082;28;20925;-73
2022/12/18 07:37:18;;;;;;;0.20;0.20;;;;;;;-7.08;100.00;97556.66;4957563;28;20523;-74
2022/12/18 07:40:06;;;;;;;0.20;0.20;;;;;;;-7.08;100.00;97556.66;4946219;28;20126;-71
2022/12/18 07:42:51;;;;;;;0.20;0.20;;;;;;;-7.06;100.00;97561.75;4945843;28;20138;-70
2022/12/18 07:45:37;;;;;;;0.25;0.25;;;;;;;-7.17;100.00;97531.28;4946843;28;20061;-73
2022/12/18 07:48:23;;;;;;;0.20;0.20;;;;;;;-7.05;100.00;97569.44;4946633;28;20531;-71
2022/12/18 07:51:12;;;;;;;0.20;0.20;;;;;;;-7.03;100.00;97564.09;4612827;28;10000344;-71
2022/12/18 07:53:58;;;;;;;0.20;0.20;;;;;;;-7.03;100.00;97570.13;4604185;28;10000302;-72
2022/12/18 07:56:44;;;;;;;0.20;0.20;;;;;;;-6.95;100.00;97566.13;4944737;28;20107;-71
2022/12/18 07:59:30;;;;;;;0.20;0.20;;;;;;;-6.97;100.00;97568.03;4943653;28;20363;-73
2022/12/18 08:02:16;;;;;;;0.20;0.20;;;;;;;-6.90;100.00;97574.44;4944352;28;20056;-72
2022/12/18 08:05:02;;;;;;;0.20;0.20;;;;;;;-6.91;100.00;97563.22;4943321;28;20527;-71
2022/12/18 08:07:48;;;;;;;0.20;0.20;;;;;;;-6.94;100.00;97560.81;4943351;28;20054;-73
2022/12/18 08:10:34;;;;;;;0.10;0.10;;;;;;;-6.89;100.00;97558.72;4946211;28;20452;-73
2022/12/18 08:13:20;;;;;;;0.15;0.15;;;;;;;-6.82;100.00;97557.31;4943761;28;20043;-72
2022/12/18 08:16:07;;;;;;;0.20;0.20;;;;;;;-6.78;100.00;97563.13;4944649;28;20050;-70
2022/12/18 08:18:53;;;;;;;0.17;0.17;;;;;;;-6.69;100.00;97575.47;4942737;28;20050;-72
2022/12/18 08:21:42;;;;;;;0.20;0.20;;;;;;;-6.62;100.00;97568.84;4944857;28;20657;-72
2022/12/18 08:24:28;;;;;;;0.13;0.13;;;;;;;-6.60;100.00;97561.75;4943169;28;20134;-73
2022/12/18 08:27:14;;;;;;;0.20;0.20;;;;;;;-6.59;100.00;97560.00;4946910;28;20323;-71
2022/12/18 08:30:07;;;;;;;0.20;0.20;;;;;;;-6.51;100.00;97558.47;4941964;28;20262;-73
2022/12/18 08:32:53;;;;;;;0.20;0.20;;;;;;;-6.46;100.00;97548.53;4941924;28;20404;-70
2022/12/18 08:35:39;;;;;;;0.20;0.20;;;;;;;-6.41;100.00;97547.34;4946762;28;20109;-73
2022/12/18 08:38:25;;;;;;;0.20;0.20;;;;;;;-6.36;100.00;97533.03;4945754;28;20723;-70
2022/12/18 08:41:13;;;;;;;0.20;0.20;;;;;;;-6.32;100.00;97524.00;4946806;28;20098;-73
2022/12/18 08:47:05;;;;;;;0.20;0.20;;;;;;;-6.14;100.00;97524.41;4945975;28;20401;-72
2022/12/18 08:49:51;;;;;;;0.20;0.20;;;;;;;-6.03;100.00;97539.19;4947633;28;20692;-73
2022/12/18 08:52:37;;;;;;;0.20;0.20;;;;;;;-5.95;100.00;97534.22;4945921;28;20047;-72
2022/12/18 08:55:23;;;;;;;0.20;0.20;;;;;;;-5.95;100.00;97516.78;4945825;28;20496;-73
2022/12/18 08:58:09;;;;;;;0.20;0.20;;;;;;;-5.92;100.00;97513.94;4944533;28;20042;-73
2022/12/18 09:01:00;;;;;;;0.20;0.20;;;;;;;-5.83;100.00;97508.94;4950720;28;20522;-71
2022/12/18 09:03:46;;;;;;;;;;;;;;;-5.69;100.00;97532.94;4965438;28;20545;-73
2022/12/18 09:06:32;;;;;;;0.20;0.20;;;;;;;-5.54;100.00;97536.13;4967117;28;20009;-74
2022/12/18 09:09:18;;;;;;;0.28;0.28;;;;;;;-5.39;100.00;97532.28;4968375;28;20076;-73
2022/12/18 09:12:04;;;;;;;0.30;0.30;;;;;;;-5.09;100.00;97543.81;4967684;28;20080;-72
2022/12/18 09:14:50;;;;;;;0.30;0.30;;;;;;;-4.58;100.00;97535.28;4965455;28;20185;-72
2022/12/18 09:17:36;;;;;;;0.30;0.30;;;;;;;-3.64;100.00;97536.81;4969208;28;20504;-74
2022/12/18 09:20:22;;;;;;;0.40;0.40;;;;;;;-2.85;100.00;97537.59;4963227;28;20052;-74
2022/12/18 09:23:08;;;;;;;0.50;0.40;;;;;;;-2.61;100.00;97534.53;4968016;28;20566;-74
2022/12/18 09:25:59;;;;;;;0.40;0.30;;;;;;;-2.08;100.00;97543.69;4968126;28;20045;-73
2022/12/18 09:28:45;;;;;;;0.40;0.40;;;;;;;-1.83;100.00;97534.34;4964122;28;20038;-70
2022/12/18 09:31:31;;;;;;;0.40;0.38;;;;;;;-1.29;100.00;97527.41;4957311;28;20102;-72
2022/12/18 09:34:17;;;;;;;0.30;0.30;;;;;;;-1.70;100.00;97516.47;4945842;28;20675;-73
2022/12/18 09:37:02;;;;;;;0.30;0.30;;;;;;;-1.93;100.00;97520.44;4946299;28;20105;-72
2022/12/18 09:39:48;;;;;;;0.30;0.30;;;;;;;-1.86;100.00;97521.50;4945941;28;20150;-73
2022/12/18 09:42:34;;;;;;;0.30;0.30;;;;;;;-1.69;100.00;97531.22;4947885;28;20089;-75
2022/12/18 09:45:22;;;;;;;0.30;0.30;;;;;;;-1.36;100.00;97534.22;4945376;28;20045;-74
2022/12/18 09:48:18;;;;;;;0.30;0.30;;;;;;;-1.78;100.00;97542.59;4945802;28;20468;-73
2022/12/18 09:51:19;;;;;;;0.22;0.22;;;;;;;-2.03;100.00;97529.16;4947516;28;20043;-74
2022/12/18 09:54:12;;;;;;;0.40;0.30;;;;;;;-0.27;100.00;97533.06;4944917;28;20034;-72
2022/12/18 09:56:58;;;;;;;0.40;0.30;;;;;;;0.79;99.38;97530.94;4946759;28;20080;-71
2022/12/18 09:59:51;;;;;;;0.35;0.35;;;;;;;0.50;99.41;97518.97;4944696;28;20046;-74
2022/12/18 10:02:37;;;;;;;0.40;0.40;;;;;;;1.28;94.22;97510.72;4964977;28;20042;-74
2022/12/18 10:06:01;;;;;;;0.30;0.30;;;;;;;0.93;95.58;97489.91;4965990;28;20042;-74
2022/12/18 10:09:16;;;;;;;0.28;0.28;;;;;;;-0.07;100.00;97496.84;4965283;28;20162;-74
2022/12/18 10:12:21;;;;;;;0.30;0.30;;;;;;;-0.29;100.00;97483.25;4963764;28;20046;-74
2022/12/18 10:15:11;;;;;;;0.30;0.30;;;;;;;-0.04;100.00;97486.81;4956034;28;20478;-73
2022/12/18 10:18:13;;;;;;;0.30;0.30;;;;;;;-0.16;100.00;97487.22;4965343;28;20195;-74
2022/12/18 10:21:05;;;;;;;0.30;0.30;;;;;;;0.48;100.00;97497.25;4963710;28;20226;-73
2022/12/18 10:24:00;;;;;;;;;;;;;;;-0.69;100.00;97501.38;4965766;28;20048;-75
2022/12/18 10:26:47;;;;;;;0.20;0.20;;;;;;;-0.49;100.00;97481.78;4964174;28;19953;-73
2022/12/18 10:29:33;;;;;;;0.20;0.20;;;;;;;-1.05;100.00;97480.38;4965478;28;20042;-73
2022/12/18 10:32:22;;;;;;;0.20;0.20;;;;;;;-0.79;100.00;97479.59;4947914;28;20039;-73
2022/12/18 10:35:18;;;;;;;0.30;0.30;;;;;;;-1.18;100.00;97477.28;4943733;28;20046;-73
2022/12/18 10:38:16;;;;;;;0.20;0.20;;;;;;;-1.14;100.00;97476.03;4942669;28;20073;-74
2022/12/18 10:41:26;;;;;;;0.20;0.20;;;;;;;-0.39;100.00;97477.25;4945791;28;20054;-73
2022/12/18 10:44:20;;;;;;;0.20;0.20;;;;;;;-0.78;100.00;97487.31;4945042;28;20162;-72
2022/12/18 10:47:13;;;;;;;0.22;0.22;;;;;;;-0.48;100.00;97472.09;4944351;28;20485;-73
2022/12/18 10:49:59;;;;;;;0.20;0.20;;;;;;;0.21;100.00;97457.97;4944818;28;20388;-74
2022/12/18 10:52:57;;;;;;;0.28;0.28;;;;;;;-0.37;100.00;97466.59;4944769;28;20519;-72
2022/12/18 10:55:46;;;;;;;0.20;0.20;;;;;;;-0.21;100.00;97469.31;4946912;28;20069;-74
2022/12/18 10:58:37;;;;;;;0.30;0.30;;;;;;;0.99;100.00;97466.38;4948305;28;20505;-73
2022/12/18 11:01:23;;;;;;;0.22;0.22;;;;;;;0.21;100.00;97448.25;4968858;28;20054;-74
2022/12/18 11:04:09;;;;;;;0.20;0.20;;;;;;;0.96;97.86;97435.09;4966790;28;20923;-74
2022/12/18 11:07:01;;;;;;;0.20;0.20;;;;;;;1.17;97.32;97455.69;4963994;28;20360;-73
2022/12/18 11:10:03;;;;;;;0.20;0.20;;;;;;;0.67;100.00;97459.25;4965698;28;20070;-74
2022/12/18 11:12:49;;;;;;;0.20;0.20;;;;;;;-0.48;100.00;97457.13;4968460;28;20099;-73
2022/12/18 11:15:35;;;;;;;0.20;0.20;;;;;;;-0.05;100.00;97458.03;4965472;28;20042;-75
2022/12/18 11:18:33;;;;;;;0.20;0.20;;;;;;;-0.92;100.00;97438.78;4967202;28;20046;-74
2022/12/18 11:21:19;;;;;;;0.20;0.20;;;;;;;-1.41;100.00;97451.47;4966120;28;20361;-72
2022/12/18 11:24:20;;;;;;;0.20;0.20;;;;;;;-0.68;100.00;97455.69;4966299;28;20050;-75
2022/12/18 11:27:18;;;;;;;0.20;0.20;;;;;;;-1.16;100.00;97447.28;4980187;28;20050;-74
2022/12/18 11:30:31;;;;;;;0.20;0.20;;;;;;;-1.89;100.00;97441.28;4965834;28;20101;-74
2022/12/18 11:33:21;;;;;;;0.20;0.20;;;;;;;-1.90;100.00;97441.44;4966000;28;20133;-73
2022/12/18 11:36:09;;;;;;;0.20;0.20;;;;;;;-2.32;100.00;97434.03;4966209;28;20046;-71
2022/12/18 11:38:59;;;;;;;0.20;0.20;;;;;;;-1.87;100.00;97422.75;4963859;28;20265;-74
2022/12/18 11:42:12;;;;;;;0.20;0.20;;;;;;;-2.52;100.00;97441.13;4977257;28;20046;-72
2022/12/18 11:45:29;;;;;;;0.20;0.20;;;;;;;-2.31;100.00;97454.03;4944765;28;20042;-71
2022/12/18 11:48:26;;;;;;;0.10;0.10;;;;;;;-3.07;100.00;97454.06;4921274;28;20357;-74
2022/12/18 11:51:41;;;;;;;0.20;0.20;;;;;;;-3.00;100.00;97454.34;4963707;28;20584;-73
2022/12/18 11:54:27;;;;;;;0.20;0.20;;;;;;;-3.03;100.00;97442.34;4965531;28;20261;-75
2022/12/18 11:57:25;;;;;;;0.20;0.20;;;;;;;-2.41;100.00;97450.59;4964886;28;20790;-71
2022/12/18 12:00:20;;;;;;;0.20;0.20;;;;;;;-2.83;100.00;97445.75;4964661;28;20120;-73
2022/12/18 12:03:32;;;;;;;0.20;0.20;;;;;;;-3.29;100.00;97447.31;4965276;28;20042;-72
2022/12/18 12:06:43;;;;;;;0.20;0.20;;;;;;;-3.33;100.00;97450.38;4964630;28;21086;-74
2022/12/18 12:09:36;;;;;;;0.30;0.30;;;;;;;-3.25;100.00;97453.13;4963758;28;20902;-74
2022/12/18 12:13:17;;;;;;;0.20;0.20;;;;;;;-3.65;100.00;97431.34;4965068;28;20371;-73
2022/12/18 12:16:11;;;;;;;0.20;0.20;;;;;;;-3.04;100.00;97435.44;4903507;29;20414;-70
2022/12/18 12:19:00;;;;;;;0.20;0.20;;;;;;;-3.10;100.00;97441.25;4921253;28;20035;-74
2022/12/18 12:22:06;;;;;;;0.20;0.20;;;;;;;-3.51;100.00;97431.88;4959398;28;20054;-72
2022/12/18 12:25:13;;;;;;;0.20;0.20;;;;;;;-3.94;100.00;97404.31;4963761;28;20039;-72
2022/12/18 12:28:19;;;;;;;0.20;0.20;;;;;;;-3.80;100.00;97426.63;4962495;28;20068;-73
2022/12/18 12:31:34;;;;;;;0.20;0.20;;;;;;;-4.35;100.00;97421.81;4950572;28;20045;-74
2022/12/18 12:34:26;;;;;;;0.20;0.20;;;;;;;-3.99;100.00;97435.25;4952778;28;20078;-72
2022/12/18 12:37:33;;;;;;;0.20;0.20;;;;;;;-4.32;100.00;97439.81;4976246;28;20054;-73
2022/12/18 12:40:23;;;;;;;0.20;0.20;;;;;;;-4.39;100.00;97436.09;4980087;28;20042;-73
2022/12/18 12:43:41;;;;;;;0.20;0.20;;;;;;;-4.26;100.00;97428.84;4965755;28;20138;-72
2022/12/18 12:46:29;;;;;;;0.20;0.20;;;;;;;-4.65;100.00;97440.09;4962687;28;20129;-73
2022/12/18 12:49:22;;;;;;;0.20;0.20;;;;;;;-4.76;100.00;97439.19;4949050;28;20046;-73
2022/12/18 12:52:13;;;;;;;0.20;0.20;;;;;;;-4.84;100.00;97443.41;4964504;28;20050;-71
2022/12/18 12:55:00;;;;;;;;;;;;;;;-4.95;100.00;97433.88;4977035;28;20148;-71
2022/12/18 12:58:31;;;;;;;0.20;0.20;;;;;;;-4.84;100.00;97425.97;4963952;28;20044;-73
2022/12/18 13:01:55;;;;;;;0.10;0.10;;;;;;;-4.59;100.00;97427.34;4939445;28;20057;-74
2022/12/18 13:04:56;;;;;;;0.20;0.20;;;;;;;-4.93;100.00;97413.69;4921987;28;20069;-73
2022/12/18 13:07:51;;;;;;;0.20;0.20;;;;;;;-5.01;100.00;97423.94;4965038;28;20423;-73
2022/12/18 13:10:42;;;;;;;0.20;0.20;;;;;;;-5.10;100.00;97409.88;4966036;28;20042;-73
2022/12/18 13:13:48;;;;;;;0.13;0.13;;;;;;;-4.98;100.00;97413.25;4963460;28;20518;-73
2022/12/18 13:16:34;;;;;;;0.20;0.20;;;;;;;-4.85;100.00;97415.66;4964852;28;20398;-74
2022/12/18 13:19:26;;;;;;;0.20;0.20;;;;;;;-4.87;100.00;97421.00;4965981;28;20053;-72
2022/12/18 13:22:42;;;;;;;0.20;0.20;;;;;;;-4.92;100.00;97436.22;4969294;28;20046;-71